sensor_id;sensor_type;location;lat;lon;timestamp;temperature;humidity
66934;DHT22;53846;51.984;5.890;2022-12-10T00:02:23;3.30;69.50
66934;DHT22;53846;51.984;5.890;2022-12-10T00:04:52;3.20;69.50
66934;DHT22;53846;51.984;5.890;2022-12-10T00:07:23;3.40;69.60
66934;DHT22;53846;51.984;5.890;2022-12-10T00:09:53;3.70;69.80
66934;DHT22;53846;51.984;5.890;2022-12-10T00:12:22;3.50;69.60
66934;DHT22;53846;51.984;5.890;2022-12-10T00:14:51;3.40;69.50
66934;DHT22;53846;51.984;5.890;2022-12-10T00:17:23;3.10;69.30
66934;DHT22;53846;51.984;5.890;2022-12-10T00:19:52;3.70;69.60
66934;DHT22;53846;51.984;5.890;2022-12-10T00:22:24;3.60;69.60
66934;DHT22;53846;51.984;5.890;2022-12-10T00:24:53;3.50;69.50
66934;DHT22;53846;51.984;5.890;2022-12-10T00:27:28;3.40;69.50
66934;DHT22;53846;51.984;5.890;2022-12-10T00:30:03;3.40;69.50
66934;DHT22;53846;51.984;5.890;2022-12-10T00:32:35;3.40;69.60
66934;DHT22;53846;51.984;5.890;2022-12-10T00:35:05;3.30;69.60
66934;DHT22;53846;51.984;5.890;2022-12-10T00:37:36;3.30;69.70
66934;DHT22;53846;51.984;5.890;2022-12-10T00:40:14;3.10;71.00
66934;DHT22;53846;51.984;5.890;2022-12-10T00:42:45;3.20;71.00
66934;DHT22;53846;51.984;5.890;2022-12-10T00:45:14;3.30;70.60
66934;DHT22;53846;51.984;5.890;2022-12-10T00:47:46;3.40;70.50
66934;DHT22;53846;51.984;5.890;2022-12-10T00:50:15;3.30;70.20
66934;DHT22;53846;51.984;5.890;2022-12-10T00:52:48;3.10;71.00
66934;DHT22;53846;51.984;5.890;2022-12-10T00:55:24;3.20;70.40
66934;DHT22;53846;51.984;5.890;2022-12-10T00:57:53;3.20;70.20
66934;DHT22;53846;51.984;5.890;2022-12-10T01:00:24;3.10;69.90
66934;DHT22;53846;51.984;5.890;2022-12-10T01:03:01;3.10;69.80
66934;DHT22;53846;51.984;5.890;2022-12-10T01:05:30;3.20;69.90
66934;DHT22;53846;51.984;5.890;2022-12-10T01:08:03;3.40;69.90
66934;DHT22;53846;51.984;5.890;2022-12-10T01:10:32;3.40;69.90
66934;DHT22;53846;51.984;5.890;2022-12-10T01:13:02;3.00;69.60
66934;DHT22;53846;51.984;5.890;2022-12-10T01:15:31;3.40;69.80
66934;DHT22;53846;51.984;5.890;2022-12-10T01:18:10;2.90;69.50
66934;DHT22;53846;51.984;5.890;2022-12-10T01:20:40;3.10;69.60
66934;DHT22;53846;51.984;5.890;2022-12-10T01:23:11;3.10;69.60
66934;DHT22;53846;51.984;5.890;2022-12-10T01:25:40;3.10;69.80
66934;DHT22;53846;51.984;5.890;2022-12-10T01:28:10;3.30;69.80
66934;DHT22;53846;51.984;5.890;2022-12-10T01:30:39;3.10;69.70
66934;DHT22;53846;51.984;5.890;2022-12-10T01:33:12;3.10;69.70
66934;DHT22;53846;51.984;5.890;2022-12-10T01:35:41;3.30;70.50
66934;DHT22;53846;51.984;5.890;2022-12-10T01:38:10;3.30;70.10
66934;DHT22;53846;51.984;5.890;2022-12-10T01:40:39;3.10;70.00
66934;DHT22;53846;51.984;5.890;2022-12-10T01:43:12;3.00;70.60
66934;DHT22;53846;51.984;5.890;2022-12-10T01:45:43;2.70;69.80
66934;DHT22;53846;51.984;5.890;2022-12-10T01:48:15;3.20;70.00
66934;DHT22;53846;51.984;5.890;2022-12-10T01:50:44;3.20;69.90
66934;DHT22;53846;51.984;5.890;2022-12-10T01:53:13;3.00;69.70
66934;DHT22;53846;51.984;5.890;2022-12-10T01:55:46;3.00;69.70
66934;DHT22;53846;51.984;5.890;2022-12-10T01:58:19;2.90;69.60
66934;DHT22;53846;51.984;5.890;2022-12-10T02:00:58;3.20;69.70
66934;DHT22;53846;51.984;5.890;2022-12-10T02:03:51;2.90;69.60
66934;DHT22;53846;51.984;5.890;2022-12-10T02:06:31;2.90;69.60
66934;DHT22;53846;51.984;5.890;2022-12-10T02:09:11;3.00;69.80
66934;DHT22;53846;51.984;5.890;2022-12-10T02:11:48;3.00;69.80
66934;DHT22;53846;51.984;5.890;2022-12-10T02:14:29;2.90;69.90
66934;DHT22;53846;51.984;5.890;2022-12-10T02:17:04;2.90;69.90
66934;DHT22;53846;51.984;5.890;2022-12-10T02:19:51;2.80;70.90
66934;DHT22;53846;51.984;5.890;2022-12-10T02:22:30;2.80;70.60
66934;DHT22;53846;51.984;5.890;2022-12-10T02:25:06;2.80;70.80
66934;DHT22;53846;51.984;5.890;2022-12-10T02:27:42;2.90;70.00
66934;DHT22;53846;51.984;5.890;2022-12-10T02:30:18;2.90;69.80
66934;DHT22;53846;51.984;5.890;2022-12-10T02:32:48;3.10;69.90
66934;DHT22;53846;51.984;5.890;2022-12-10T02:35:25;3.00;69.90
66934;DHT22;53846;51.984;5.890;2022-12-10T02:38:08;2.80;70.00
66934;DHT22;53846;51.984;5.890;2022-12-10T02:40:46;2.60;69.80
66934;DHT22;53846;51.984;5.890;2022-12-10T02:43:17;2.60;69.90
66934;DHT22;53846;51.984;5.890;2022-12-10T02:45:52;3.00;70.10
66934;DHT22;53846;51.984;5.890;2022-12-10T02:48:22;3.00;70.10
66934;DHT22;53846;51.984;5.890;2022-12-10T02:50:52;2.80;69.80
66934;DHT22;53846;51.984;5.890;2022-12-10T02:53:21;2.80;69.80
66934;DHT22;53846;51.984;5.890;2022-12-10T02:55:59;2.90;69.90
66934;DHT22;53846;51.984;5.890;2022-12-10T02:58:42;2.60;69.70
66934;DHT22;53846;51.984;5.890;2022-12-10T03:01:24;2.70;69.70
66934;DHT22;53846;51.984;5.890;2022-12-10T03:03:59;2.80;69.90
66934;DHT22;53846;51.984;5.890;2022-12-10T03:06:35;3.00;70.30
66934;DHT22;53846;51.984;5.890;2022-12-10T03:09:08;2.70;71.10
66934;DHT22;53846;51.984;5.890;2022-12-10T03:11:39;2.60;71.10
66934;DHT22;53846;51.984;5.890;2022-12-10T03:14:18;2.90;71.20
66934;DHT22;53846;51.984;5.890;2022-12-10T03:16:55;2.30;71.00
66934;DHT22;53846;51.984;5.890;2022-12-10T03:19:28;2.50;71.20
66934;DHT22;53846;51.984;5.890;2022-12-10T03:22:00;2.40;70.90
66934;DHT22;53846;51.984;5.890;2022-12-10T03:24:30;2.50;71.40
66934;DHT22;53846;51.984;5.890;2022-12-10T03:27:04;2.50;70.80
66934;DHT22;53846;51.984;5.890;2022-12-10T03:29:37;2.60;71.10
66934;DHT22;53846;51.984;5.890;2022-12-10T03:32:13;2.50;71.50
66934;DHT22;53846;51.984;5.890;2022-12-10T03:34:46;2.40;72.20
66934;DHT22;53846;51.984;5.890;2022-12-10T03:37:19;2.40;72.20
66934;DHT22;53846;51.984;5.890;2022-12-10T03:39:49;2.40;73.30
66934;DHT22;53846;51.984;5.890;2022-12-10T03:42:24;2.30;72.60
66934;DHT22;53846;51.984;5.890;2022-12-10T03:44:56;2.30;73.00
66934;DHT22;53846;51.984;5.890;2022-12-10T03:47:28;2.30;73.00
66934;DHT22;53846;51.984;5.890;2022-12-10T03:49:58;2.10;73.10
66934;DHT22;53846;51.984;5.890;2022-12-10T03:52:27;2.30;73.80
66934;DHT22;53846;51.984;5.890;2022-12-10T03:55:00;2.40;73.30
66934;DHT22;53846;51.984;5.890;2022-12-10T03:57:32;2.30;73.90
66934;DHT22;53846;51.984;5.890;2022-12-10T04:00:04;2.20;73.30
66934;DHT22;53846;51.984;5.890;2022-12-10T04:02:43;2.10;73.60
66934;DHT22;53846;51.984;5.890;2022-12-10T04:05:12;2.20;75.30
66934;DHT22;53846;51.984;5.890;2022-12-10T04:07:41;2.30;75.30
66934;DHT22;53846;51.984;5.890;2022-12-10T04:10:17;2.50;75.30
66934;DHT22;53846;51.984;5.890;2022-12-10T04:12:47;2.10;74.90
66934;DHT22;53846;51.984;5.890;2022-12-10T04:15:38;2.30;75.10
66934;DHT22;53846;51.984;5.890;2022-12-10T04:18:25;2.00;75.70
66934;DHT22;53846;51.984;5.890;2022-12-10T04:21:05;2.20;75.70
66934;DHT22;53846;51.984;5.890;2022-12-10T04:23:46;2.20;75.40
66934;DHT22;53846;51.984;5.890;2022-12-10T04:26:28;2.60;75.40
66934;DHT22;53846;51.984;5.890;2022-12-10T04:29:10;2.40;75.20
66934;DHT22;53846;51.984;5.890;2022-12-10T04:31:39;2.30;75.70
66934;DHT22;53846;51.984;5.890;2022-12-10T04:34:11;2.40;76.30
66934;DHT22;53846;51.984;5.890;2022-12-10T04:36:40;2.40;76.70
66934;DHT22;53846;51.984;5.890;2022-12-10T04:39:09;2.20;76.80
66934;DHT22;53846;51.984;5.890;2022-12-10T04:41:40;2.30;77.50
66934;DHT22;53846;51.984;5.890;2022-12-10T04:44:11;2.50;77.90
66934;DHT22;53846;51.984;5.890;2022-12-10T04:46:40;2.40;77.70
66934;DHT22;53846;51.984;5.890;2022-12-10T04:49:12;2.60;78.80
66934;DHT22;53846;51.984;5.890;2022-12-10T04:51:42;2.60;78.40
66934;DHT22;53846;51.984;5.890;2022-12-10T04:54:14;2.40;78.20
66934;DHT22;53846;51.984;5.890;2022-12-10T04:56:43;2.30;78.50
66934;DHT22;53846;51.984;5.890;2022-12-10T04:59:14;2.20;79.00
66934;DHT22;53846;51.984;5.890;2022-12-10T05:01:44;2.50;79.00
66934;DHT22;53846;51.984;5.890;2022-12-10T05:04:19;2.30;79.10
66934;DHT22;53846;51.984;5.890;2022-12-10T05:06:48;2.40;79.30
66934;DHT22;53846;51.984;5.890;2022-12-10T05:09:20;2.30;79.30
66934;DHT22;53846;51.984;5.890;2022-12-10T05:11:52;2.20;78.40
66934;DHT22;53846;51.984;5.890;2022-12-10T05:14:21;2.20;78.70
66934;DHT22;53846;51.984;5.890;2022-12-10T05:16:54;2.10;79.10
66934;DHT22;53846;51.984;5.890;2022-12-10T05:19:25;2.10;79.90
66934;DHT22;53846;51.984;5.890;2022-12-10T05:21:55;2.20;80.30
66934;DHT22;53846;51.984;5.890;2022-12-10T05:24:38;2.00;79.60
66934;DHT22;53846;51.984;5.890;2022-12-10T05:27:08;1.90;79.70
66934;DHT22;53846;51.984;5.890;2022-12-10T05:29:38;1.90;80.60
66934;DHT22;53846;51.984;5.890;2022-12-10T05:32:07;1.90;81.40
66934;DHT22;53846;51.984;5.890;2022-12-10T05:34:39;2.00;82.30
66934;DHT22;53846;51.984;5.890;2022-12-10T05:37:08;1.70;82.40
66934;DHT22;53846;51.984;5.890;2022-12-10T05:39:37;1.70;82.10
66934;DHT22;53846;51.984;5.890;2022-12-10T05:42:07;1.90;82.60
66934;DHT22;53846;51.984;5.890;2022-12-10T05:44:43;1.80;82.50
66934;DHT22;53846;51.984;5.890;2022-12-10T05:47:13;1.80;82.50
66934;DHT22;53846;51.984;5.890;2022-12-10T05:49:44;1.70;82.40
66934;DHT22;53846;51.984;5.890;2022-12-10T05:52:14;1.70;82.60
66934;DHT22;53846;51.984;5.890;2022-12-10T05:54:45;1.70;83.50
66934;DHT22;53846;51.984;5.890;2022-12-10T05:57:18;1.70;83.40
66934;DHT22;53846;51.984;5.890;2022-12-10T05:59:50;1.70;83.40
66934;DHT22;53846;51.984;5.890;2022-12-10T06:02:19;1.70;83.60
66934;DHT22;53846;51.984;5.890;2022-12-10T06:04:51;1.60;83.80
66934;DHT22;53846;51.984;5.890;2022-12-10T06:07:20;2.00;83.70
66934;DHT22;53846;51.984;5.890;2022-12-10T06:09:49;2.00;83.50
66934;DHT22;53846;51.984;5.890;2022-12-10T06:12:19;1.90;83.20
66934;DHT22;53846;51.984;5.890;2022-12-10T06:14:48;1.40;82.60
66934;DHT22;53846;51.984;5.890;2022-12-10T06:17:17;1.60;82.60
66934;DHT22;53846;51.984;5.890;2022-12-10T06:19:52;1.60;82.50
66934;DHT22;53846;51.984;5.890;2022-12-10T06:22:21;1.50;82.50
66934;DHT22;53846;51.984;5.890;2022-12-10T06:24:50;1.80;83.00
66934;DHT22;53846;51.984;5.890;2022-12-10T06:27:20;1.60;83.20
66934;DHT22;53846;51.984;5.890;2022-12-10T06:29:49;1.50;84.00
66934;DHT22;53846;51.984;5.890;2022-12-10T06:32:21;1.30;83.30
66934;DHT22;53846;51.984;5.890;2022-12-10T06:34:58;1.60;83.50
66934;DHT22;53846;51.984;5.890;2022-12-10T06:37:27;1.50;83.70
66934;DHT22;53846;51.984;5.890;2022-12-10T06:39:56;1.50;84.30
66934;DHT22;53846;51.984;5.890;2022-12-10T06:42:28;1.00;85.20
66934;DHT22;53846;51.984;5.890;2022-12-10T06:44:57;1.20;84.80
66934;DHT22;53846;51.984;5.890;2022-12-10T06:47:26;0.90;85.10
66934;DHT22;53846;51.984;5.890;2022-12-10T06:50:00;1.10;85.40
66934;DHT22;53846;51.984;5.890;2022-12-10T06:52:29;1.10;85.80
66934;DHT22;53846;51.984;5.890;2022-12-10T06:54:58;1.20;85.90
66934;DHT22;53846;51.984;5.890;2022-12-10T06:57:29;1.10;86.40
66934;DHT22;53846;51.984;5.890;2022-12-10T06:59:58;1.10;86.50
66934;DHT22;53846;51.984;5.890;2022-12-10T07:02:27;1.20;86.50
66934;DHT22;53846;51.984;5.890;2022-12-10T07:05:00;1.10;86.70
66934;DHT22;53846;51.984;5.890;2022-12-10T07:07:30;0.90;86.20
66934;DHT22;53846;51.984;5.890;2022-12-10T07:09:59;1.10;85.60
66934;DHT22;53846;51.984;5.890;2022-12-10T07:12:31;1.20;85.30
66934;DHT22;53846;51.984;5.890;2022-12-10T07:15:03;1.10;85.80
66934;DHT22;53846;51.984;5.890;2022-12-10T07:17:33;0.90;85.00
66934;DHT22;53846;51.984;5.890;2022-12-10T07:20:05;1.10;85.20
66934;DHT22;53846;51.984;5.890;2022-12-10T07:22:38;1.50;85.50
66934;DHT22;53846;51.984;5.890;2022-12-10T07:25:08;1.20;85.00
66934;DHT22;53846;51.984;5.890;2022-12-10T07:27:38;1.20;84.60
66934;DHT22;53846;51.984;5.890;2022-12-10T07:30:14;1.20;85.00
66934;DHT22;53846;51.984;5.890;2022-12-10T07:32:43;0.90;85.30
66934;DHT22;53846;51.984;5.890;2022-12-10T07:35:15;1.30;85.80
66934;DHT22;53846;51.984;5.890;2022-12-10T07:37:44;1.40;86.00
66934;DHT22;53846;51.984;5.890;2022-12-10T07:40:14;1.10;86.20
66934;DHT22;53846;51.984;5.890;2022-12-10T07:42:45;1.10;86.20
66934;DHT22;53846;51.984;5.890;2022-12-10T07:45:18;1.00;86.70
66934;DHT22;53846;51.984;5.890;2022-12-10T07:47:47;1.20;86.00
66934;DHT22;53846;51.984;5.890;2022-12-10T07:50:19;1.10;85.80
66934;DHT22;53846;51.984;5.890;2022-12-10T07:52:51;0.80;85.40
66934;DHT22;53846;51.984;5.890;2022-12-10T07:55:22;1.10;85.60
66934;DHT22;53846;51.984;5.890;2022-12-10T07:57:52;1.00;86.10
66934;DHT22;53846;51.984;5.890;2022-12-10T08:00:21;1.00;86.10
66934;DHT22;53846;51.984;5.890;2022-12-10T08:02:50;1.30;86.60
66934;DHT22;53846;51.984;5.890;2022-12-10T08:05:22;0.80;86.10
66934;DHT22;53846;51.984;5.890;2022-12-10T08:07:51;1.10;86.50
66934;DHT22;53846;51.984;5.890;2022-12-10T08:10:21;1.10;85.90
66934;DHT22;53846;51.984;5.890;2022-12-10T08:12:50;1.10;86.30
66934;DHT22;53846;51.984;5.890;2022-12-10T08:15:19;1.10;87.10
66934;DHT22;53846;51.984;5.890;2022-12-10T08:17:48;1.10;86.90
66934;DHT22;53846;51.984;5.890;2022-12-10T08:20:18;1.10;87.10
66934;DHT22;53846;51.984;5.890;2022-12-10T08:22:50;1.30;86.90
66934;DHT22;53846;51.984;5.890;2022-12-10T08:25:20;1.30;86.50
66934;DHT22;53846;51.984;5.890;2022-12-10T08:27:52;1.10;86.50
66934;DHT22;53846;51.984;5.890;2022-12-10T08:30:24;1.30;86.40
66934;DHT22;53846;51.984;5.890;2022-12-10T08:32:55;1.40;86.20
66934;DHT22;53846;51.984;5.890;2022-12-10T08:35:25;1.50;86.10
66934;DHT22;53846;51.984;5.890;2022-12-10T08:38:00;1.50;85.90
66934;DHT22;53846;51.984;5.890;2022-12-10T08:40:29;1.60;85.90
66934;DHT22;53846;51.984;5.890;2022-12-10T08:43:00;1.60;85.70
66934;DHT22;53846;51.984;5.890;2022-12-10T08:45:31;1.70;85.60
66934;DHT22;53846;51.984;5.890;2022-12-10T08:48:01;1.70;85.90
66934;DHT22;53846;51.984;5.890;2022-12-10T08:50:30;1.70;84.50
66934;DHT22;53846;51.984;5.890;2022-12-10T08:53:04;1.60;83.90
66934;DHT22;53846;51.984;5.890;2022-12-10T08:55:38;1.30;83.80
66934;DHT22;53846;51.984;5.890;2022-12-10T08:58:08;1.50;84.50
66934;DHT22;53846;51.984;5.890;2022-12-10T09:00:41;1.40;84.60
66934;DHT22;53846;51.984;5.890;2022-12-10T09:03:10;1.40;84.90
66934;DHT22;53846;51.984;5.890;2022-12-10T09:05:48;1.30;85.40
66934;DHT22;53846;51.984;5.890;2022-12-10T09:08:20;1.40;85.30
66934;DHT22;53846;51.984;5.890;2022-12-10T09:10:49;1.20;85.30
66934;DHT22;53846;51.984;5.890;2022-12-10T09:13:22;1.60;85.30
66934;DHT22;53846;51.984;5.890;2022-12-10T09:15:51;1.70;85.60
66934;DHT22;53846;51.984;5.890;2022-12-10T09:18:26;1.60;85.50
66934;DHT22;53846;51.984;5.890;2022-12-10T09:20:55;1.50;85.30
66934;DHT22;53846;51.984;5.890;2022-12-10T09:23:27;1.50;85.60
66934;DHT22;53846;51.984;5.890;2022-12-10T09:25:56;1.50;85.80
66934;DHT22;53846;51.984;5.890;2022-12-10T09:28:26;1.60;86.30
66934;DHT22;53846;51.984;5.890;2022-12-10T09:30:55;1.70;86.80
66934;DHT22;53846;51.984;5.890;2022-12-10T09:33:28;1.60;87.00
66934;DHT22;53846;51.984;5.890;2022-12-10T09:35:58;1.60;87.00
66934;DHT22;53846;51.984;5.890;2022-12-10T09:38:29;1.60;86.70
66934;DHT22;53846;51.984;5.890;2022-12-10T09:41:01;1.70;86.50
66934;DHT22;53846;51.984;5.890;2022-12-10T09:43:45;1.70;86.00
66934;DHT22;53846;51.984;5.890;2022-12-10T09:46:31;1.70;85.90
66934;DHT22;53846;51.984;5.890;2022-12-10T09:49:12;1.70;85.70
66934;DHT22;53846;51.984;5.890;2022-12-10T09:51:42;1.80;86.40
66934;DHT22;53846;51.984;5.890;2022-12-10T09:54:19;1.70;85.80
66934;DHT22;53846;51.984;5.890;2022-12-10T09:56:50;1.80;86.40
66934;DHT22;53846;51.984;5.890;2022-12-10T09:59:23;2.10;86.70
66934;DHT22;53846;51.984;5.890;2022-12-10T10:02:03;1.70;86.20
66934;DHT22;53846;51.984;5.890;2022-12-10T10:04:32;1.70;86.00
66934;DHT22;53846;51.984;5.890;2022-12-10T10:07:02;1.90;85.90
66934;DHT22;53846;51.984;5.890;2022-12-10T10:09:39;2.20;86.20
66934;DHT22;53846;51.984;5.890;2022-12-10T10:12:13;1.80;85.80
66934;DHT22;53846;51.984;5.890;2022-12-10T10:14:44;2.30;86.40
66934;DHT22;53846;51.984;5.890;2022-12-10T10:17:18;1.90;86.30
66934;DHT22;53846;51.984;5.890;2022-12-10T10:19:48;2.20;86.30
66934;DHT22;53846;51.984;5.890;2022-12-10T10:22:18;1.80;85.90
66934;DHT22;53846;51.984;5.890;2022-12-10T10:24:52;2.30;86.50
66934;DHT22;53846;51.984;5.890;2022-12-10T10:27:23;2.00;87.10
66934;DHT22;53846;51.984;5.890;2022-12-10T10:29:55;2.10;86.80
66934;DHT22;53846;51.984;5.890;2022-12-10T10:32:27;2.00;86.40
66934;DHT22;53846;51.984;5.890;2022-12-10T10:34:59;2.10;86.40
66934;DHT22;53846;51.984;5.890;2022-12-10T10:37:31;2.00;87.90
66934;DHT22;53846;51.984;5.890;2022-12-10T10:40:21;2.10;87.50
66934;DHT22;53846;51.984;5.890;2022-12-10T10:42:54;2.20;86.30
66934;DHT22;53846;51.984;5.890;2022-12-10T10:45:34;2.10;85.70
66934;DHT22;53846;51.984;5.890;2022-12-10T10:48:11;2.30;85.10
66934;DHT22;53846;51.984;5.890;2022-12-10T10:50:46;2.20;84.90
66934;DHT22;53846;51.984;5.890;2022-12-10T10:53:25;2.30;85.00
66934;DHT22;53846;51.984;5.890;2022-12-10T10:56:03;2.30;84.70
66934;DHT22;53846;51.984;5.890;2022-12-10T10:58:35;2.30;84.90
66934;DHT22;53846;51.984;5.890;2022-12-10T11:01:07;2.40;84.70
66934;DHT22;53846;51.984;5.890;2022-12-10T11:03:37;2.40;84.70
66934;DHT22;53846;51.984;5.890;2022-12-10T11:06:14;2.20;85.60
66934;DHT22;53846;51.984;5.890;2022-12-10T11:08:46;2.50;85.70
66934;DHT22;53846;51.984;5.890;2022-12-10T11:11:25;2.30;85.30
66934;DHT22;53846;51.984;5.890;2022-12-10T11:14:14;2.30;84.60
66934;DHT22;53846;51.984;5.890;2022-12-10T11:16:44;2.30;84.70
66934;DHT22;53846;51.984;5.890;2022-12-10T11:19:19;2.40;85.00
66934;DHT22;53846;51.984;5.890;2022-12-10T11:21:49;2.30;86.70
66934;DHT22;53846;51.984;5.890;2022-12-10T11:24:20;2.30;86.40
66934;DHT22;53846;51.984;5.890;2022-12-10T11:27:00;2.50;86.10
66934;DHT22;53846;51.984;5.890;2022-12-10T11:29:48;2.50;85.60
66934;DHT22;53846;51.984;5.890;2022-12-10T11:32:35;2.30;85.10
66934;DHT22;53846;51.984;5.890;2022-12-10T11:35:12;2.70;85.30
66934;DHT22;53846;51.984;5.890;2022-12-10T11:37:47;2.70;84.10
66934;DHT22;53846;51.984;5.890;2022-12-10T11:43:37;2.70;83.40
66934;DHT22;53846;51.984;5.890;2022-12-10T11:46:19;2.70;83.30
66934;DHT22;53846;51.984;5.890;2022-12-10T11:49:05;2.80;83.60
66934;DHT22;53846;51.984;5.890;2022-12-10T11:51:41;2.60;83.80
66934;DHT22;53846;51.984;5.890;2022-12-10T11:54:30;2.60;84.10
66934;DHT22;53846;51.984;5.890;2022-12-10T11:57:12;2.60;84.20
66934;DHT22;53846;51.984;5.890;2022-12-10T11:59:53;2.60;84.00
66934;DHT22;53846;51.984;5.890;2022-12-10T12:03:00;2.60;84.00
66934;DHT22;53846;51.984;5.890;2022-12-10T12:05:52;2.90;84.40
66934;DHT22;53846;51.984;5.890;2022-12-10T12:08:37;2.60;84.10
66934;DHT22;53846;51.984;5.890;2022-12-10T12:11:20;2.70;84.20
66934;DHT22;53846;51.984;5.890;2022-12-10T12:13:57;2.80;84.20
66934;DHT22;53846;51.984;5.890;2022-12-10T12:16:34;2.70;83.50
66934;DHT22;53846;51.984;5.890;2022-12-10T12:19:09;2.50;83.00
66934;DHT22;53846;51.984;5.890;2022-12-10T12:21:40;2.40;83.40
66934;DHT22;53846;51.984;5.890;2022-12-10T12:24:16;2.50;83.50
66934;DHT22;53846;51.984;5.890;2022-12-10T12:26:53;2.50;83.80
66934;DHT22;53846;51.984;5.890;2022-12-10T12:29:31;2.40;85.00
66934;DHT22;53846;51.984;5.890;2022-12-10T12:32:17;2.40;84.70
66934;DHT22;53846;51.984;5.890;2022-12-10T12:34:51;2.20;84.40
66934;DHT22;53846;51.984;5.890;2022-12-10T12:37:30;2.40;84.70
66934;DHT22;53846;51.984;5.890;2022-12-10T12:40:07;2.60;84.80
66934;DHT22;53846;51.984;5.890;2022-12-10T12:42:44;2.50;84.60
66934;DHT22;53846;51.984;5.890;2022-12-10T12:45:20;2.50;84.50
66934;DHT22;53846;51.984;5.890;2022-12-10T12:47:58;2.40;84.40
66934;DHT22;53846;51.984;5.890;2022-12-10T12:50:41;2.50;84.80
66934;DHT22;53846;51.984;5.890;2022-12-10T12:53:14;2.20;84.80
66934;DHT22;53846;51.984;5.890;2022-12-10T12:55:58;2.50;85.30
66934;DHT22;53846;51.984;5.890;2022-12-10T12:58:35;2.60;85.60
66934;DHT22;53846;51.984;5.890;2022-12-10T13:01:18;2.40;85.90
66934;DHT22;53846;51.984;5.890;2022-12-10T13:03:50;2.30;86.40
66934;DHT22;53846;51.984;5.890;2022-12-10T13:06:22;2.40;86.50
66934;DHT22;53846;51.984;5.890;2022-12-10T13:08:57;2.30;85.80
66934;DHT22;53846;51.984;5.890;2022-12-10T13:11:45;2.40;85.40
66934;DHT22;53846;51.984;5.890;2022-12-10T13:14:37;2.40;85.00
66934;DHT22;53846;51.984;5.890;2022-12-10T13:17:28;2.60;85.30
66934;DHT22;53846;51.984;5.890;2022-12-10T13:20:25;2.60;85.40
66934;DHT22;53846;51.984;5.890;2022-12-10T13:22:58;2.70;85.70
66934;DHT22;53846;51.984;5.890;2022-12-10T13:25:55;2.30;85.40
66934;DHT22;53846;51.984;5.890;2022-12-10T13:28:31;2.50;85.60
66934;DHT22;53846;51.984;5.890;2022-12-10T13:31:32;2.50;85.80
66934;DHT22;53846;51.984;5.890;2022-12-10T13:34:20;2.50;86.10
66934;DHT22;53846;51.984;5.890;2022-12-10T13:37:18;2.40;85.90
66934;DHT22;53846;51.984;5.890;2022-12-10T13:42:56;2.50;87.10
66934;DHT22;53846;51.984;5.890;2022-12-10T13:45:40;2.70;86.60
66934;DHT22;53846;51.984;5.890;2022-12-10T13:48:26;2.50;86.40
66934;DHT22;53846;51.984;5.890;2022-12-10T13:51:18;2.50;86.50
66934;DHT22;53846;51.984;5.890;2022-12-10T13:54:00;2.50;86.90
66934;DHT22;53846;51.984;5.890;2022-12-10T13:56:36;2.60;86.70
66934;DHT22;53846;51.984;5.890;2022-12-10T13:59:23;2.60;86.60
66934;DHT22;53846;51.984;5.890;2022-12-10T14:02:10;2.70;86.30
66934;DHT22;53846;51.984;5.890;2022-12-10T14:05:07;2.80;85.70
66934;DHT22;53846;51.984;5.890;2022-12-10T14:07:44;2.60;85.50
66934;DHT22;53846;51.984;5.890;2022-12-10T14:10:16;2.60;85.20
66934;DHT22;53846;51.984;5.890;2022-12-10T14:12:47;2.60;84.80
66934;DHT22;53846;51.984;5.890;2022-12-10T14:15:18;2.80;84.90
66934;DHT22;53846;51.984;5.890;2022-12-10T14:17:59;2.60;85.10
66934;DHT22;53846;51.984;5.890;2022-12-10T14:20:34;2.70;85.00
66934;DHT22;53846;51.984;5.890;2022-12-10T14:23:16;2.70;84.80
66934;DHT22;53846;51.984;5.890;2022-12-10T14:26:09;2.90;84.90
66934;DHT22;53846;51.984;5.890;2022-12-10T14:28:44;3.00;85.10
66934;DHT22;53846;51.984;5.890;2022-12-10T14:31:19;3.10;85.10
66934;DHT22;53846;51.984;5.890;2022-12-10T14:33:50;2.90;84.90
66934;DHT22;53846;51.984;5.890;2022-12-10T14:36:27;2.80;84.80
66934;DHT22;53846;51.984;5.890;2022-12-10T14:39:00;2.90;84.80
66934;DHT22;53846;51.984;5.890;2022-12-10T14:41:31;3.00;84.60
66934;DHT22;53846;51.984;5.890;2022-12-10T14:44:04;3.00;85.10
66934;DHT22;53846;51.984;5.890;2022-12-10T14:46:33;2.70;84.40
66934;DHT22;53846;51.984;5.890;2022-12-10T14:49:06;2.80;84.30
66934;DHT22;53846;51.984;5.890;2022-12-10T14:51:40;3.00;84.50
66934;DHT22;53846;51.984;5.890;2022-12-10T14:54:28;2.90;86.10
66934;DHT22;53846;51.984;5.890;2022-12-10T14:57:00;2.90;85.50
66934;DHT22;53846;51.984;5.890;2022-12-10T14:59:34;2.80;84.80
66934;DHT22;53846;51.984;5.890;2022-12-10T15:02:12;3.20;84.80
66934;DHT22;53846;51.984;5.890;2022-12-10T15:04:45;3.30;84.50
66934;DHT22;53846;51.984;5.890;2022-12-10T15:07:21;2.80;84.10
66934;DHT22;53846;51.984;5.890;2022-12-10T15:09:54;3.00;84.10
66934;DHT22;53846;51.984;5.890;2022-12-10T15:12:29;2.90;84.40
66934;DHT22;53846;51.984;5.890;2022-12-10T15:15:05;2.80;84.40
66934;DHT22;53846;51.984;5.890;2022-12-10T15:17:40;2.80;84.50
66934;DHT22;53846;51.984;5.890;2022-12-10T15:20:19;2.80;84.90
66934;DHT22;53846;51.984;5.890;2022-12-10T15:22:54;2.80;85.20
66934;DHT22;53846;51.984;5.890;2022-12-10T15:25:27;2.80;85.20
66934;DHT22;53846;51.984;5.890;2022-12-10T15:27:59;3.00;85.30
66934;DHT22;53846;51.984;5.890;2022-12-10T15:30:36;3.10;85.40
66934;DHT22;53846;51.984;5.890;2022-12-10T15:33:22;3.10;85.30
66934;DHT22;53846;51.984;5.890;2022-12-10T15:35:54;2.70;85.20
66934;DHT22;53846;51.984;5.890;2022-12-10T15:38:27;2.60;85.00
66934;DHT22;53846;51.984;5.890;2022-12-10T15:41:32;2.90;85.20
66934;DHT22;53846;51.984;5.890;2022-12-10T15:44:03;2.80;84.60
66934;DHT22;53846;51.984;5.890;2022-12-10T15:46:32;2.70;85.00
66934;DHT22;53846;51.984;5.890;2022-12-10T15:49:03;2.70;85.50
66934;DHT22;53846;51.984;5.890;2022-12-10T15:51:40;2.70;86.10
66934;DHT22;53846;51.984;5.890;2022-12-10T15:54:22;2.70;86.20
66934;DHT22;53846;51.984;5.890;2022-12-10T15:56:52;2.80;86.20
66934;DHT22;53846;51.984;5.890;2022-12-10T15:59:21;2.80;86.00
66934;DHT22;53846;51.984;5.890;2022-12-10T16:01:55;2.60;85.80
66934;DHT22;53846;51.984;5.890;2022-12-10T16:04:25;2.70;85.70
66934;DHT22;53846;51.984;5.890;2022-12-10T16:06:54;2.70;86.00
66934;DHT22;53846;51.984;5.890;2022-12-10T16:09:25;2.70;85.80
66934;DHT22;53846;51.984;5.890;2022-12-10T16:11:58;2.60;85.70
66934;DHT22;53846;51.984;5.890;2022-12-10T16:14:27;2.60;85.80
66934;DHT22;53846;51.984;5.890;2022-12-10T16:16:56;2.70;86.60
66934;DHT22;53846;51.984;5.890;2022-12-10T16:19:26;2.50;86.50
66934;DHT22;53846;51.984;5.890;2022-12-10T16:21:56;2.60;86.70
66934;DHT22;53846;51.984;5.890;2022-12-10T16:24:28;2.40;86.70
66934;DHT22;53846;51.984;5.890;2022-12-10T16:26:57;2.30;86.90
66934;DHT22;53846;51.984;5.890;2022-12-10T16:29:28;2.60;87.30
66934;DHT22;53846;51.984;5.890;2022-12-10T16:32:00;2.50;87.70
66934;DHT22;53846;51.984;5.890;2022-12-10T16:34:29;2.50;88.40
66934;DHT22;53846;51.984;5.890;2022-12-10T16:36:59;2.60;87.90